sensor_id;sensor_type;location;lat;lon;timestamp;P1;durP1;ratioP1;P2;durP2;ratioP2
71771;SDS011;59606;52.138;5.424;2022-10-18T00:01:27;28.20;;;13.02;;
71771;SDS011;59606;52.138;5.424;2022-10-18T00:03:53;38.83;;;13.67;;
71771;SDS011;59606;52.138;5.424;2022-10-18T00:06:20;30.08;;;13.35;;
71771;SDS011;59606;52.138;5.424;2022-10-18T00:08:46;34.58;;;13.65;;
71771;SDS011;59606;52.138;5.424;2022-10-18T00:11:13;26.13;;;12.27;;
71771;SDS011;59606;52.138;5.424;2022-10-18T00:13:39;55.20;;;14.32;;
71771;SDS011;59606;52.138;5.424;2022-10-18T00:16:09;32.40;;;11.73;;
71771;SDS011;59606;52.138;5.424;2022-10-18T00:18:37;38.10;;;14.05;;
71771;SDS011;59606;52.138;5.424;2022-10-18T00:21:05;66.45;;;13.73;;
71771;SDS011;59606;52.138;5.424;2022-10-18T00:23:37;39.38;;;12.38;;
71771;SDS011;59606;52.138;5.424;2022-10-18T00:26:05;57.53;;;13.25;;
71771;SDS011;59606;52.138;5.424;2022-10-18T00:28:34;57.73;;;13.67;;
71771;SDS011;59606;52.138;5.424;2022-10-18T00:31:15;84.45;;;15.05;;
71771;SDS011;59606;52.138;5.424;2022-10-18T00:33:43;41.78;;;14.30;;
71771;SDS011;59606;52.138;5.424;2022-10-18T00:36:12;35.67;;;13.25;;
71771;SDS011;59606;52.138;5.424;2022-10-18T00:38:39;48.80;;;14.13;;
71771;SDS011;59606;52.138;5.424;2022-10-18T00:41:07;43.10;;;12.10;;
71771;SDS011;59606;52.138;5.424;2022-10-18T00:46:29;45.33;;;11.93;;
71771;SDS011;59606;52.138;5.424;2022-10-18T00:49:02;56.13;;;11.57;;
71771;SDS011;59606;52.138;5.424;2022-10-18T00:51:32;39.60;;;10.75;;
71771;SDS011;59606;52.138;5.424;2022-10-18T00:54:04;46.30;;;9.93;;
71771;SDS011;59606;52.138;5.424;2022-10-18T00:56:31;52.53;;;11.45;;
71771;SDS011;59606;52.138;5.424;2022-10-18T00:58:59;49.28;;;10.85;;
71771;SDS011;59606;52.138;5.424;2022-10-18T01:01:25;32.67;;;10.32;;
71771;SDS011;59606;52.138;5.424;2022-10-18T01:03:53;52.15;;;10.27;;
71771;SDS011;59606;52.138;5.424;2022-10-18T01:06:21;37.27;;;9.47;;
71771;SDS011;59606;52.138;5.424;2022-10-18T01:16:53;26.42;;;9.07;;
71771;SDS011;59606;52.138;5.424;2022-10-18T01:22:15;20.38;;;8.93;;
71771;SDS011;59606;52.138;5.424;2022-10-18T01:24:59;29.80;;;9.55;;
71771;SDS011;59606;52.138;5.424;2022-10-18T01:32:50;13.80;;;7.90;;
71771;SDS011;59606;52.138;5.424;2022-10-18T01:35:21;16.20;;;8.27;;
71771;SDS011;59606;52.138;5.424;2022-10-18T01:37:52;14.05;;;8.52;;
71771;SDS011;59606;52.138;5.424;2022-10-18T01:40:24;21.77;;;8.35;;
71771;SDS011;59606;52.138;5.424;2022-10-18T01:42:51;15.32;;;8.50;;
71771;SDS011;59606;52.138;5.424;2022-10-18T01:45:18;16.43;;;8.87;;
71771;SDS011;59606;52.138;5.424;2022-10-18T01:47:47;19.17;;;9.13;;
71771;SDS011;59606;52.138;5.424;2022-10-18T01:50:13;18.55;;;7.95;;
71771;SDS011;59606;52.138;5.424;2022-10-18T01:52:47;14.10;;;8.32;;
71771;SDS011;59606;52.138;5.424;2022-10-18T01:55:14;17.27;;;8.88;;
71771;SDS011;59606;52.138;5.424;2022-10-18T01:57:45;15.83;;;8.60;;
71771;SDS011;59606;52.138;5.424;2022-10-18T02:00:35;18.83;;;8.68;;
71771;SDS011;59606;52.138;5.424;2022-10-18T02:03:06;25.90;;;8.38;;
71771;SDS011;59606;52.138;5.424;2022-10-18T02:06:38;24.42;;;8.23;;
71771;SDS011;59606;52.138;5.424;2022-10-18T02:11:32;24.47;;;8.93;;
71771;SDS011;59606;52.138;5.424;2022-10-18T02:14:03;24.02;;;8.43;;
71771;SDS011;59606;52.138;5.424;2022-10-18T02:16:50;31.85;;;9.77;;
71771;SDS011;59606;52.138;5.424;2022-10-18T02:19:29;29.45;;;8.45;;
71771;SDS011;59606;52.138;5.424;2022-10-18T02:22:02;27.63;;;7.55;;
71771;SDS011;59606;52.138;5.424;2022-10-18T02:24:32;15.20;;;7.67;;
71771;SDS011;59606;52.138;5.424;2022-10-18T02:27:02;22.73;;;7.70;;
71771;SDS011;59606;52.138;5.424;2022-10-18T02:29:30;30.88;;;9.07;;
71771;SDS011;59606;52.138;5.424;2022-10-18T02:32:01;22.50;;;8.13;;
71771;SDS011;59606;52.138;5.424;2022-10-18T02:34:37;24.98;;;8.50;;
71771;SDS011;59606;52.138;5.424;2022-10-18T02:37:08;14.80;;;8.03;;
71771;SDS011;59606;52.138;5.424;2022-10-18T02:39:38;22.80;;;8.15;;
71771;SDS011;59606;52.138;5.424;2022-10-18T02:42:10;19.60;;;7.75;;
71771;SDS011;59606;52.138;5.424;2022-10-18T02:44:37;16.85;;;7.72;;
71771;SDS011;59606;52.138;5.424;2022-10-18T02:47:05;17.75;;;8.05;;
71771;SDS011;59606;52.138;5.424;2022-10-18T02:49:32;15.80;;;8.37;;
71771;SDS011;59606;52.138;5.424;2022-10-18T02:51:59;19.88;;;7.57;;
71771;SDS011;59606;52.138;5.424;2022-10-18T02:54:25;17.90;;;7.97;;
71771;SDS011;59606;52.138;5.424;2022-10-18T02:56:52;25.83;;;7.03;;
71771;SDS011;59606;52.138;5.424;2022-10-18T02:59:18;21.05;;;7.95;;
71771;SDS011;59606;52.138;5.424;2022-10-18T03:01:45;18.83;;;7.63;;
71771;SDS011;59606;52.138;5.424;2022-10-18T03:04:11;19.92;;;7.35;;
71771;SDS011;59606;52.138;5.424;2022-10-18T03:06:38;14.77;;;7.00;;
71771;SDS011;59606;52.138;5.424;2022-10-18T03:09:05;11.25;;;6.60;;
71771;SDS011;59606;52.138;5.424;2022-10-18T03:11:32;14.43;;;7.13;;
71771;SDS011;59606;52.138;5.424;2022-10-18T03:13:58;11.47;;;6.50;;
71771;SDS011;59606;52.138;5.424;2022-10-18T03:16:25;15.30;;;7.03;;
71771;SDS011;59606;52.138;5.424;2022-10-18T03:18:51;11.57;;;7.35;;
71771;SDS011;59606;52.138;5.424;2022-10-18T03:21:18;11.65;;;7.35;;
71771;SDS011;59606;52.138;5.424;2022-10-18T03:23:44;11.57;;;6.97;;
71771;SDS011;59606;52.138;5.424;2022-10-18T03:26:11;11.07;;;6.70;;
71771;SDS011;59606;52.138;5.424;2022-10-18T03:28:37;13.52;;;6.72;;
71771;SDS011;59606;52.138;5.424;2022-10-18T03:31:04;12.05;;;6.50;;
71771;SDS011;59606;52.138;5.424;2022-10-18T03:33:30;11.68;;;6.93;;
71771;SDS011;59606;52.138;5.424;2022-10-18T03:35:58;11.27;;;5.82;;
71771;SDS011;59606;52.138;5.424;2022-10-18T03:38:24;12.63;;;6.83;;
71771;SDS011;59606;52.138;5.424;2022-10-18T03:40:51;10.57;;;6.40;;
71771;SDS011;59606;52.138;5.424;2022-10-18T03:43:18;9.27;;;5.93;;
71771;SDS011;59606;52.138;5.424;2022-10-18T03:45:44;11.15;;;6.22;;
71771;SDS011;59606;52.138;5.424;2022-10-18T03:48:11;13.15;;;6.32;;
71771;SDS011;59606;52.138;5.424;2022-10-18T03:50:37;9.33;;;6.07;;
71771;SDS011;59606;52.138;5.424;2022-10-18T03:53:04;18.40;;;6.00;;
71771;SDS011;59606;52.138;5.424;2022-10-18T03:55:30;13.65;;;6.07;;
71771;SDS011;59606;52.138;5.424;2022-10-18T03:57:57;8.90;;;5.65;;
71771;SDS011;59606;52.138;5.424;2022-10-18T04:00:23;11.65;;;5.90;;
71771;SDS011;59606;52.138;5.424;2022-10-18T04:02:50;9.67;;;5.77;;
71771;SDS011;59606;52.138;5.424;2022-10-18T04:05:21;10.40;;;5.68;;
71771;SDS011;59606;52.138;5.424;2022-10-18T04:07:49;11.32;;;5.50;;
71771;SDS011;59606;52.138;5.424;2022-10-18T04:10:15;13.75;;;5.68;;
71771;SDS011;59606;52.138;5.424;2022-10-18T04:12:43;9.57;;;5.57;;
71771;SDS011;59606;52.138;5.424;2022-10-18T04:15:10;12.70;;;6.20;;
71771;SDS011;59606;52.138;5.424;2022-10-18T04:17:36;9.73;;;5.80;;
71771;SDS011;59606;52.138;5.424;2022-10-18T04:20:03;9.65;;;5.63;;
71771;SDS011;59606;52.138;5.424;2022-10-18T04:22:29;12.60;;;5.60;;
71771;SDS011;59606;52.138;5.424;2022-10-18T04:24:56;10.73;;;5.53;;
71771;SDS011;59606;52.138;5.424;2022-10-18T04:27:22;11.33;;;5.40;;
71771;SDS011;59606;52.138;5.424;2022-10-18T04:29:49;8.60;;;4.90;;
71771;SDS011;59606;52.138;5.424;2022-10-18T04:32:15;8.70;;;5.50;;
71771;SDS011;59606;52.138;5.424;2022-10-18T04:34:42;13.57;;;5.20;;
71771;SDS011;59606;52.138;5.424;2022-10-18T04:37:13;9.73;;;6.38;;
71771;SDS011;59606;52.138;5.424;2022-10-18T04:39:40;9.70;;;5.90;;
71771;SDS011;59606;52.138;5.424;2022-10-18T04:42:17;8.85;;;5.25;;
71771;SDS011;59606;52.138;5.424;2022-10-18T04:44:44;10.45;;;5.75;;
71771;SDS011;59606;52.138;5.424;2022-10-18T04:47:11;12.40;;;5.97;;
71771;SDS011;59606;52.138;5.424;2022-10-18T04:49:37;9.95;;;5.57;;
71771;SDS011;59606;52.138;5.424;2022-10-18T04:52:04;21.30;;;6.63;;
71771;SDS011;59606;52.138;5.424;2022-10-18T04:54:30;29.83;;;6.97;;
71771;SDS011;59606;52.138;5.424;2022-10-18T04:56:56;26.08;;;6.60;;
71771;SDS011;59606;52.138;5.424;2022-10-18T04:59:23;28.45;;;7.80;;
71771;SDS011;59606;52.138;5.424;2022-10-18T05:01:49;24.95;;;6.72;;
71771;SDS011;59606;52.138;5.424;2022-10-18T05:04:16;17.90;;;7.60;;
71771;SDS011;59606;52.138;5.424;2022-10-18T05:06:42;23.48;;;7.80;;
71771;SDS011;59606;52.138;5.424;2022-10-18T05:09:09;24.55;;;7.65;;
71771;SDS011;59606;52.138;5.424;2022-10-18T05:11:35;23.65;;;7.38;;
71771;SDS011;59606;52.138;5.424;2022-10-18T05:14:02;34.40;;;8.30;;
71771;SDS011;59606;52.138;5.424;2022-10-18T05:16:28;37.73;;;6.77;;
71771;SDS011;59606;52.138;5.424;2022-10-18T05:18:55;15.15;;;6.55;;
71771;SDS011;59606;52.138;5.424;2022-10-18T05:21:21;14.18;;;6.63;;
71771;SDS011;59606;52.138;5.424;2022-10-18T05:23:47;11.85;;;5.90;;
71771;SDS011;59606;52.138;5.424;2022-10-18T05:26:14;17.10;;;6.45;;
71771;SDS011;59606;52.138;5.424;2022-10-18T05:28:40;12.80;;;6.40;;
71771;SDS011;59606;52.138;5.424;2022-10-18T05:31:08;10.57;;;5.97;;
71771;SDS011;59606;52.138;5.424;2022-10-18T05:33:36;13.73;;;6.50;;
71771;SDS011;59606;52.138;5.424;2022-10-18T05:36:03;16.33;;;5.88;;
71771;SDS011;59606;52.138;5.424;2022-10-18T05:38:29;17.83;;;5.88;;
71771;SDS011;59606;52.138;5.424;2022-10-18T05:40:57;19.63;;;6.40;;
71771;SDS011;59606;52.138;5.424;2022-10-18T05:43:29;19.35;;;6.38;;
71771;SDS011;59606;52.138;5.424;2022-10-18T05:45:55;15.18;;;6.15;;
71771;SDS011;59606;52.138;5.424;2022-10-18T05:48:22;18.60;;;6.72;;
71771;SDS011;59606;52.138;5.424;2022-10-18T05:50:49;19.55;;;5.70;;
71771;SDS011;59606;52.138;5.424;2022-10-18T05:53:15;18.70;;;6.30;;
71771;SDS011;59606;52.138;5.424;2022-10-18T05:56:02;25.75;;;8.95;;
71771;SDS011;59606;52.138;5.424;2022-10-18T05:58:29;22.73;;;6.78;;
71771;SDS011;59606;52.138;5.424;2022-10-18T06:00:59;29.63;;;7.60;;
71771;SDS011;59606;52.138;5.424;2022-10-18T06:03:26;24.63;;;8.77;;
71771;SDS011;59606;52.138;5.424;2022-10-18T06:05:57;27.00;;;8.23;;
71771;SDS011;59606;52.138;5.424;2022-10-18T06:08:25;22.35;;;7.07;;
71771;SDS011;59606;52.138;5.424;2022-10-18T06:10:51;28.55;;;7.30;;
71771;SDS011;59606;52.138;5.424;2022-10-18T06:13:18;28.27;;;7.95;;
71771;SDS011;59606;52.138;5.424;2022-10-18T06:15:44;29.73;;;7.82;;
71771;SDS011;59606;52.138;5.424;2022-10-18T06:18:11;21.10;;;6.93;;
71771;SDS011;59606;52.138;5.424;2022-10-18T06:20:38;23.33;;;7.43;;
71771;SDS011;59606;52.138;5.424;2022-10-18T06:23:05;27.23;;;7.78;;
71771;SDS011;59606;52.138;5.424;2022-10-18T06:25:31;30.10;;;7.85;;
71771;SDS011;59606;52.138;5.424;2022-10-18T06:27:58;19.70;;;7.35;;
71771;SDS011;59606;52.138;5.424;2022-10-18T06:30:24;19.60;;;7.47;;
71771;SDS011;59606;52.138;5.424;2022-10-18T06:32:50;21.48;;;7.15;;
71771;SDS011;59606;52.138;5.424;2022-10-18T06:35:17;17.83;;;6.80;;
71771;SDS011;59606;52.138;5.424;2022-10-18T06:37:43;21.40;;;6.65;;
71771;SDS011;59606;52.138;5.424;2022-10-18T06:40:10;19.60;;;6.65;;
71771;SDS011;59606;52.138;5.424;2022-10-18T06:42:37;15.13;;;5.63;;
71771;SDS011;59606;52.138;5.424;2022-10-18T06:45:03;16.17;;;5.80;;
71771;SDS011;59606;52.138;5.424;2022-10-18T06:47:30;14.90;;;5.72;;
71771;SDS011;59606;52.138;5.424;2022-10-18T06:49:56;18.42;;;6.13;;
71771;SDS011;59606;52.138;5.424;2022-10-18T06:52:23;17.92;;;6.13;;
71771;SDS011;59606;52.138;5.424;2022-10-18T06:54:50;14.90;;;5.60;;
71771;SDS011;59606;52.138;5.424;2022-10-18T06:57:18;11.43;;;5.38;;
71771;SDS011;59606;52.138;5.424;2022-10-18T06:59:45;10.55;;;4.95;;
71771;SDS011;59606;52.138;5.424;2022-10-18T07:02:13;11.88;;;5.97;;
71771;SDS011;59606;52.138;5.424;2022-10-18T07:04:41;16.02;;;5.15;;
71771;SDS011;59606;52.138;5.424;2022-10-18T07:07:08;10.47;;;5.83;;
71771;SDS011;59606;52.138;5.424;2022-10-18T07:09:34;9.98;;;4.82;;
71771;SDS011;59606;52.138;5.424;2022-10-18T07:12:01;14.38;;;5.57;;
71771;SDS011;59606;52.138;5.424;2022-10-18T07:14:27;10.48;;;4.93;;
71771;SDS011;59606;52.138;5.424;2022-10-18T07:16:57;16.88;;;4.88;;
71771;SDS011;59606;52.138;5.424;2022-10-18T07:19:24;9.70;;;4.63;;
71771;SDS011;59606;52.138;5.424;2022-10-18T07:21:50;9.73;;;4.72;;
71771;SDS011;59606;52.138;5.424;2022-10-18T07:24:17;9.57;;;4.63;;
71771;SDS011;59606;52.138;5.424;2022-10-18T07:26:43;11.30;;;5.07;;
71771;SDS011;59606;52.138;5.424;2022-10-18T07:29:10;13.90;;;5.07;;
71771;SDS011;59606;52.138;5.424;2022-10-18T07:31:37;14.93;;;5.60;;
71771;SDS011;59606;52.138;5.424;2022-10-18T07:34:04;7.95;;;4.72;;
71771;SDS011;59606;52.138;5.424;2022-10-18T07:36:32;9.88;;;4.65;;
71771;SDS011;59606;52.138;5.424;2022-10-18T07:38:59;11.73;;;5.47;;
71771;SDS011;59606;52.138;5.424;2022-10-18T07:41:25;11.57;;;5.22;;
71771;SDS011;59606;52.138;5.424;2022-10-18T07:43:52;11.57;;;4.70;;
71771;SDS011;59606;52.138;5.424;2022-10-18T07:46:19;11.13;;;5.40;;
71771;SDS011;59606;52.138;5.424;2022-10-18T07:48:47;14.88;;;5.53;;
71771;SDS011;59606;52.138;5.424;2022-10-18T07:51:13;10.40;;;5.40;;
71771;SDS011;59606;52.138;5.424;2022-10-18T07:53:40;10.63;;;5.15;;
71771;SDS011;59606;52.138;5.424;2022-10-18T07:56:08;11.77;;;5.67;;
71771;SDS011;59606;52.138;5.424;2022-10-18T07:58:41;15.13;;;5.75;;
71771;SDS011;59606;52.138;5.424;2022-10-18T08:01:09;13.02;;;5.93;;
71771;SDS011;59606;52.138;5.424;2022-10-18T08:03:36;13.18;;;6.30;;
71771;SDS011;59606;52.138;5.424;2022-10-18T08:06:03;15.20;;;7.25;;
71771;SDS011;59606;52.138;5.424;2022-10-18T08:08:33;15.70;;;6.07;;
71771;SDS011;59606;52.138;5.424;2022-10-18T08:11:03;15.52;;;6.20;;
71771;SDS011;59606;52.138;5.424;2022-10-18T08:13:31;11.73;;;6.53;;
71771;SDS011;59606;52.138;5.424;2022-10-18T08:15:59;11.63;;;6.20;;
71771;SDS011;59606;52.138;5.424;2022-10-18T08:18:26;12.27;;;6.22;;
71771;SDS011;59606;52.138;5.424;2022-10-18T08:20:53;13.20;;;5.97;;
71771;SDS011;59606;52.138;5.424;2022-10-18T08:23:20;15.25;;;6.40;;
71771;SDS011;59606;52.138;5.424;2022-10-18T08:25:46;12.18;;;5.70;;
71771;SDS011;59606;52.138;5.424;2022-10-18T08:28:13;10.48;;;5.32;;
71771;SDS011;59606;52.138;5.424;2022-10-18T08:30:39;15.00;;;7.18;;
71771;SDS011;59606;52.138;5.424;2022-10-18T08:33:06;11.50;;;5.50;;
71771;SDS011;59606;52.138;5.424;2022-10-18T08:35:32;10.88;;;5.45;;
71771;SDS011;59606;52.138;5.424;2022-10-18T08:37:59;9.57;;;6.28;;
71771;SDS011;59606;52.138;5.424;2022-10-18T08:40:26;14.05;;;5.97;;
71771;SDS011;59606;52.138;5.424;2022-10-18T08:46:11;11.37;;;6.10;;
71771;SDS011;59606;52.138;5.424;2022-10-18T08:48:40;9.63;;;5.88;;
71771;SDS011;59606;52.138;5.424;2022-10-18T08:51:34;9.25;;;5.57;;
71771;SDS011;59606;52.138;5.424;2022-10-18T08:56:26;10.95;;;5.32;;
71771;SDS011;59606;52.138;5.424;2022-10-18T08:58:52;13.07;;;5.17;;
71771;SDS011;59606;52.138;5.424;2022-10-18T09:04:08;10.73;;;4.63;;
71771;SDS011;59606;52.138;5.424;2022-10-18T09:10:04;9.18;;;4.57;;
71771;SDS011;59606;52.138;5.424;2022-10-18T09:20:55;8.75;;;4.50;;
71771;SDS011;59606;52.138;5.424;2022-10-18T09:23:42;9.00;;;4.78;;
71771;SDS011;59606;52.138;5.424;2022-10-18T09:26:18;10.80;;;4.13;;
71771;SDS011;59606;52.138;5.424;2022-10-18T09:37:27;10.73;;;5.22;;
71771;SDS011;59606;52.138;5.424;2022-10-18T09:39:59;10.27;;;4.70;;
71771;SDS011;59606;52.138;5.424;2022-10-18T09:43:19;8.75;;;4.57;;
71771;SDS011;59606;52.138;5.424;2022-10-18T09:45:45;9.02;;;4.40;;
71771;SDS011;59606;52.138;5.424;2022-10-18T09:48:26;6.55;;;2.17;;
71771;SDS011;59606;52.138;5.424;2022-10-18T09:50:56;10.10;;;2.22;;
71771;SDS011;59606;52.138;5.424;2022-10-18T09:58:55;7.07;;;1.77;;
71771;SDS011;59606;52.138;5.424;2022-10-18T10:01:25;10.57;;;1.20;;
71771;SDS011;59606;52.138;5.424;2022-10-18T10:03:54;6.55;;;1.13;;
71771;SDS011;59606;52.138;5.424;2022-10-18T10:06:25;10.70;;;0.90;;
71771;SDS011;59606;52.138;5.424;2022-10-18T10:08:56;5.75;;;0.80;;
71771;SDS011;59606;52.138;5.424;2022-10-18T10:11:43;5.40;;;1.08;;
71771;SDS011;59606;52.138;5.424;2022-10-18T10:14:12;7.15;;;0.80;;
71771;SDS011;59606;52.138;5.424;2022-10-18T10:16:52;6.07;;;0.90;;
71771;SDS011;59606;52.138;5.424;2022-10-18T10:19:25;6.83;;;0.80;;
71771;SDS011;59606;52.138;5.424;2022-10-18T10:21:55;4.70;;;0.90;;
71771;SDS011;59606;52.138;5.424;2022-10-18T10:24:49;5.43;;;0.80;;
71771;SDS011;59606;52.138;5.424;2022-10-18T10:27:20;2.47;;;0.63;;
71771;SDS011;59606;52.138;5.424;2022-10-18T10:29:59;2.00;;;0.65;;
71771;SDS011;59606;52.138;5.424;2022-10-18T10:32:43;6.37;;;1.07;;
71771;SDS011;59606;52.138;5.424;2022-10-18T10:35:45;3.08;;;0.65;;
71771;SDS011;59606;52.138;5.424;2022-10-18T10:38:22;7.10;;;0.70;;
71771;SDS011;59606;52.138;5.424;2022-10-18T10:40:50;3.67;;;0.98;;
71771;SDS011;59606;52.138;5.424;2022-10-18T10:43:18;5.28;;;0.85;;
71771;SDS011;59606;52.138;5.424;2022-10-18T10:48:50;5.28;;;0.85;;
71771;SDS011;59606;52.138;5.424;2022-10-18T10:51:37;2.40;;;0.57;;
71771;SDS011;59606;52.138;5.424;2022-10-18T10:54:05;8.27;;;1.35;;
71771;SDS011;59606;52.138;5.424;2022-10-18T11:04:40;3.55;;;0.52;;
71771;SDS011;59606;52.138;5.424;2022-10-18T11:09:55;4.63;;;0.88;;
71771;SDS011;59606;52.138;5.424;2022-10-18T11:15:02;4.50;;;0.55;;
71771;SDS011;59606;52.138;5.424;2022-10-18T11:20:59;2.90;;;0.70;;
71771;SDS011;59606;52.138;5.424;2022-10-18T11:23:37;3.80;;;1.00;;
71771;SDS011;59606;52.138;5.424;2022-10-18T11:31:31;3.92;;;1.05;;
71771;SDS011;59606;52.138;5.424;2022-10-18T11:45:48;3.05;;;0.50;;
71771;SDS011;59606;52.138;5.424;2022-10-18T11:54:17;5.17;;;0.97;;
71771;SDS011;59606;52.138;5.424;2022-10-18T11:57:15;5.35;;;0.65;;
71771;SDS011;59606;52.138;5.424;2022-10-18T12:00:06;4.22;;;0.60;;
71771;SDS011;59606;52.138;5.424;2022-10-18T12:05:39;2.47;;;0.40;;
71771;SDS011;59606;52.138;5.424;2022-10-18T12:08:10;5.97;;;1.63;;
71771;SDS011;59606;52.138;5.424;2022-10-18T12:10:41;4.90;;;0.40;;
71771;SDS011;59606;52.138;5.424;2022-10-18T12:16:24;5.03;;;0.50;;
71771;SDS011;59606;52.138;5.424;2022-10-18T12:19:22;7.80;;;0.80;;
71771;SDS011;59606;52.138;5.424;2022-10-18T12:21:54;4.90;;;0.60;;
71771;SDS011;59606;52.138;5.424;2022-10-18T12:24:24;7.00;;;1.38;;
71771;SDS011;59606;52.138;5.424;2022-10-18T12:26:56;4.80;;;0.60;;
71771;SDS011;59606;52.138;5.424;2022-10-18T12:32:17;3.47;;;0.47;;
71771;SDS011;59606;52.138;5.424;2022-10-18T12:34:51;5.07;;;0.50;;
71771;SDS011;59606;52.138;5.424;2022-10-18T12:40:03;6.07;;;0.85;;
71771;SDS011;59606;52.138;5.424;2022-10-18T12:42:43;2.47;;;1.17;;
71771;SDS011;59606;52.138;5.424;2022-10-18T12:47:38;2.73;;;0.47;;
71771;SDS011;59606;52.138;5.424;2022-10-18T12:50:06;3.08;;;0.40;;
71771;SDS011;59606;52.138;5.424;2022-10-18T12:55:35;2.80;;;0.47;;
71771;SDS011;59606;52.138;5.424;2022-10-18T12:58:05;2.15;;;0.60;;
71771;SDS011;59606;52.138;5.424;2022-10-18T13:18:48;3.83;;;0.50;;
71771;SDS011;59606;52.138;5.424;2022-10-18T13:29:57;2.90;;;0.50;;
71771;SDS011;59606;52.138;5.424;2022-10-18T13:35:50;4.50;;;0.68;;
71771;SDS011;59606;52.138;5.424;2022-10-18T13:41:02;3.40;;;0.70;;
71771;SDS011;59606;52.138;5.424;2022-10-18T13:46:19;7.72;;;0.80;;
71771;SDS011;59606;52.138;5.424;2022-10-18T13:51:27;7.63;;;0.60;;
71771;SDS011;59606;52.138;5.424;2022-10-18T13:56:50;4.63;;;0.60;;
71771;SDS011;59606;52.138;5.424;2022-10-18T14:02:30;2.63;;;0.30;;
71771;SDS011;59606;52.138;5.424;2022-10-18T14:05:23;3.75;;;0.40;;
71771;SDS011;59606;52.138;5.424;2022-10-18T14:08:02;8.10;;;1.23;;
71771;SDS011;59606;52.138;5.424;2022-10-18T14:10:53;2.70;;;0.45;;
71771;SDS011;59606;52.138;5.424;2022-10-18T14:16:21;4.40;;;0.45;;
71771;SDS011;59606;52.138;5.424;2022-10-18T14:18:56;5.65;;;0.47;;
71771;SDS011;59606;52.138;5.424;2022-10-18T14:21:39;4.47;;;0.70;;
71771;SDS011;59606;52.138;5.424;2022-10-18T14:24:16;2.20;;;0.80;;
71771;SDS011;59606;52.138;5.424;2022-10-18T14:27:03;4.30;;;0.93;;
71771;SDS011;59606;52.138;5.424;2022-10-18T14:29:44;9.70;;;1.42;;
71771;SDS011;59606;52.138;5.424;2022-10-18T14:32:21;5.63;;;0.70;;
71771;SDS011;59606;52.138;5.424;2022-10-18T14:34:50;7.83;;;0.93;;
71771;SDS011;59606;52.138;5.424;2022-10-18T14:40:01;5.53;;;0.90;;
71771;SDS011;59606;52.138;5.424;2022-10-18T14:42:28;4.38;;;0.88;;
71771;SDS011;59606;52.138;5.424;2022-10-18T14:44:55;5.95;;;1.13;;
71771;SDS011;59606;52.138;5.424;2022-10-18T14:47:22;5.10;;;0.90;;
71771;SDS011;59606;52.138;5.424;2022-10-18T14:49:50;7.47;;;0.90;;
71771;SDS011;59606;52.138;5.424;2022-10-18T14:52:24;6.07;;;0.60;;
71771;SDS011;59606;52.138;5.424;2022-10-18T14:55:00;5.88;;;1.35;;
71771;SDS011;59606;52.138;5.424;2022-10-18T14:57:31;6.40;;;0.80;;
71771;SDS011;59606;52.138;5.424;2022-10-18T15:00:00;7.23;;;0.77;;
71771;SDS011;59606;52.138;5.424;2022-10-18T15:02:31;7.53;;;1.00;;
71771;SDS011;59606;52.138;5.424;2022-10-18T15:05:05;9.55;;;0.90;;
71771;SDS011;59606;52.138;5.424;2022-10-18T15:07:42;6.35;;;0.90;;
71771;SDS011;59606;52.138;5.424;2022-10-18T15:10:13;6.60;;;0.77;;
71771;SDS011;59606;52.138;5.424;2022-10-18T15:12:45;8.50;;;0.77;;
71771;SDS011;59606;52.138;5.424;2022-10-18T15:15:33;7.05;;;1.10;;
71771;SDS011;59606;52.138;5.424;2022-10-18T15:18:00;4.50;;;0.63;;
71771;SDS011;59606;52.138;5.424;2022-10-18T15:20:31;5.47;;;0.80;;
71771;SDS011;59606;52.138;5.424;2022-10-18T15:23:21;5.70;;;0.60;;
71771;SDS011;59606;52.138;5.424;2022-10-18T15:25:48;5.17;;;0.60;;
71771;SDS011;59606;52.138;5.424;2022-10-18T15:28:23;9.45;;;0.90;;
71771;SDS011;59606;52.138;5.424;2022-10-18T15:30:52;4.30;;;1.17;;
71771;SDS011;59606;52.138;5.424;2022-10-18T15:33:19;4.72;;;0.80;;
71771;SDS011;59606;52.138;5.424;2022-10-18T15:35:48;4.90;;;0.63;;
71771;SDS011;59606;52.138;5.424;2022-10-18T15:38:24;5.07;;;0.60;;
71771;SDS011;59606;52.138;5.424;2022-10-18T15:41:01;4.65;;;0.90;;
71771;SDS011;59606;52.138;5.424;2022-10-18T15:43:48;5.88;;;0.90;;
71771;SDS011;59606;52.138;5.424;2022-10-18T15:46:28;2.55;;;0.70;;
71771;SDS011;59606;52.138;5.424;2022-10-18T15:48:59;5.07;;;1.60;;
71771;SDS011;59606;52.138;5.424;2022-10-18T15:52:33;8.00;;;0.87;;
71771;SDS011;59606;52.138;5.424;2022-10-18T15:58:03;5.40;;;0.77;;
71771;SDS011;59606;52.138;5.424;2022-10-18T16:00:30;6.97;;;0.80;;
71771;SDS011;59606;52.138;5.424;2022-10-18T16:02:57;11.10;;;1.05;;
71771;SDS011;59606;52.138;5.424;2022-10-18T16:05:23;4.53;;;1.40;;
71771;SDS011;59606;52.138;5.424;2022-10-18T16:07:51;7.10;;;1.10;;
71771;SDS011;59606;52.138;5.424;2022-10-18T16:10:17;4.05;;;0.63;;
71771;SDS011;59606;52.138;5.424;2022-10-18T16:12:44;6.68;;;0.68;;
71771;SDS011;59606;52.138;5.424;2022-10-18T16:15:10;5.95;;;1.33;;
71771;SDS011;59606;52.138;5.424;2022-10-18T16:17:37;5.93;;;0.73;;
71771;SDS011;59606;52.138;5.424;2022-10-18T16:20:04;5.75;;;0.70;;
71771;SDS011;59606;52.138;5.424;2022-10-18T16:22:31;7.43;;;1.08;;
71771;SDS011;59606;52.138;5.424;2022-10-18T16:25:02;4.50;;;1.08;;
71771;SDS011;59606;52.138;5.424;2022-10-18T16:27:29;6.07;;;0.70;;
71771;SDS011;59606;52.138;5.424;2022-10-18T16:29:56;6.57;;;1.47;;
71771;SDS011;59606;52.138;5.424;2022-10-18T16:32:22;7.45;;;1.40;;
71771;SDS011;59606;52.138;5.424;2022-10-18T16:34:49;5.32;;;0.90;;
71771;SDS011;59606;52.138;5.424;2022-10-18T16:37:15;3.13;;;0.90;;
71771;SDS011;59606;52.138;5.424;2022-10-18T16:39:42;7.63;;;1.00;;
71771;SDS011;59606;52.138;5.424;2022-10-18T16:42:08;3.67;;;0.67;;
71771;SDS011;59606;52.138;5.424;2022-10-18T16:44:34;6.43;;;0.70;;
71771;SDS011;59606;52.138;5.424;2022-10-18T16:47:01;8.73;;;0.68;;
71771;SDS011;59606;52.138;5.424;2022-10-18T16:49:28;5.85;;;0.63;;
71771;SDS011;59606;52.138;5.424;2022-10-18T16:51:54;3.13;;;0.68;;
71771;SDS011;59606;52.138;5.424;2022-10-18T16:54:21;4.60;;;1.00;;
71771;SDS011;59606;52.138;5.424;2022-10-18T16:56:48;4.20;;;0.57;;
71771;SDS011;59606;52.138;5.424;2022-10-18T16:59:26;4.25;;;1.70;;
71771;SDS011;59606;52.138;5.424;2022-10-18T17:01:54;5.60;;;0.88;;
71771;SDS011;59606;52.138;5.424;2022-10-18T17:04:21;4.90;;;0.70;;
71771;SDS011;59606;52.138;5.424;2022-10-18T17:06:47;7.10;;;0.80;;
71771;SDS011;59606;52.138;5.424;2022-10-18T17:09:14;4.60;;;1.02;;
71771;SDS011;59606;52.138;5.424;2022-10-18T17:11:41;10.32;;;1.23;;
71771;SDS011;59606;52.138;5.424;2022-10-18T17:14:07;8.20;;;0.82;;
71771;SDS011;59606;52.138;5.424;2022-10-18T17:16:35;4.63;;;0.70;;
71771;SDS011;59606;52.138;5.424;2022-10-18T17:19:04;8.97;;;1.10;;
71771;SDS011;59606;52.138;5.424;2022-10-18T17:21:32;2.45;;;0.68;;
71771;SDS011;59606;52.138;5.424;2022-10-18T17:23:58;8.63;;;1.30;;
71771;SDS011;59606;52.138;5.424;2022-10-18T17:26:29;8.55;;;0.95;;
71771;SDS011;59606;52.138;5.424;2022-10-18T17:28:57;5.30;;;0.90;;
71771;SDS011;59606;52.138;5.424;2022-10-18T17:31:26;4.30;;;1.17;;
71771;SDS011;59606;52.138;5.424;2022-10-18T17:33:53;5.72;;;1.20;;
71771;SDS011;59606;52.138;5.424;2022-10-18T17:36:20;8.23;;;1.08;;
71771;SDS011;59606;52.138;5.424;2022-10-18T17:38:51;3.65;;;0.63;;
71771;SDS011;59606;52.138;5.424;2022-10-18T17:41:18;10.32;;;1.17;;
71771;SDS011;59606;52.138;5.424;2022-10-18T17:43:45;5.40;;;1.00;;
71771;SDS011;59606;52.138;5.424;2022-10-18T17:46:13;5.18;;;1.08;;
71771;SDS011;59606;52.138;5.424;2022-10-18T17:48:41;7.70;;;1.15;;